Flight Track Log - Related Links

Times and Time Zones

All times are in EDT time to prevent confusion due to time zone crossing. See the CTL61 flight status page for this flight to view local times or setup timezone preferences in your user account.

Time Position Orientation Groundspeed Altitude Reporting Facility
EDT Latitude Longitude Course Direction KTS MPH feet Rate Location/Type
Mon 09:10:00 PM 36.2165 -79.7058 312° West  Level FlightAware Approximate
Mon 09:11:00 PM 36.2466 -79.7468 312° West  Level FlightAware Approximate
Mon 09:12:00 PM 36.2767 -79.7879 312° West  Level FlightAware Approximate
Mon 09:13:00 PM 36.3069 -79.8289 312° West  Level FlightAware Approximate
Mon 09:14:00 PM 36.3369 -79.8701 312° West  Level FlightAware Approximate
Mon 09:15:00 PM 36.3670 -79.9112 312° West  Level FlightAware Approximate
Mon 09:16:00 PM 36.3971 -79.9524 312° West  Level FlightAware Approximate
Mon 09:17:00 PM 36.4271 -79.9936 312° West  Level FlightAware Approximate
Mon 09:17:15 PM 36.4542 -79.9839 312° West 166 191 8,000  Level Atlanta Center
Mon 09:18:00 PM 36.4571 -80.0349 312° West  Level FlightAware Approximate
Mon 09:18:15 PM 36.4828 -80.0261 310° West 166 191 8,000  Level Atlanta Center
Mon 09:19:00 PM 36.4871 -80.0761 312° West  Level FlightAware Approximate
Mon 09:19:15 PM 36.5114 -80.0714 308° West 166 191 8,000  Level Atlanta Center
Mon 09:20:00 PM 36.5171 -80.1174 312° West  Level FlightAware Approximate
Mon 09:20:15 PM 36.5353 -80.1011 315° West 164 189 8,000  Level Atlanta Center
Mon 09:21:00 PM 36.5471 -80.1588 312° West  Level FlightAware Approximate
Mon 09:21:15 PM 36.5678 -80.1433 314° West 164 189 8,000  Level Atlanta Center
Mon 09:22:00 PM 36.5771 -80.2001 312° West  Level FlightAware Approximate
Mon 09:22:15 PM 36.5964 -80.1886 308° West 163 188 8,000  Level Atlanta Center
Mon 09:23:15 PM 36.6247 -80.2261 313° West 163 188 8,000  Level Atlanta Center
Mon 09:24:15 PM 36.6553 -80.2686 312° West 163 188 8,000  Level Atlanta Center
Mon 09:25:15 PM 36.6836 -80.3111 310° West 158 182 8,000  Level Atlanta Center
Mon 09:26:15 PM 36.7119 -80.3539 310° West 158 182 8,000  Level Atlanta Center
Mon 09:27:15 PM 36.7403 -80.3967 310° West 158 182 8,000 50 Level Atlanta Center
Mon 09:28:15 PM 36.7644 -80.4319 311° West 153 176 8,100 50 Climbing Atlanta Center
Mon 09:29:15 PM 36.7928 -80.4719 312° West 153 176 8,100  Level Atlanta Center
Mon 09:30:15 PM 36.8189 -80.5150 307° West 153 176 8,100  Level Atlanta Center
Mon 09:31:15 PM 36.8492 -80.5525 315° West 153 176 8,100  Level Atlanta Center
Mon 09:32:15 PM 36.8797 -80.5978 310° West 153 176 8,100  Level Atlanta Center
Mon 09:33:15 PM 36.9078 -80.6381 311° West 153 176 8,100  Level Atlanta Center
Mon 09:34:15 PM 36.9342 -80.6811 307° West 153 176 8,100  Level Atlanta Center
Mon 09:35:15 PM 36.9644 -80.7214 313° West 153 176 8,100 -34 Level Atlanta Center
Mon 09:37:11 PM 37.0183 -80.7986 311° West 153 176 8,000 -34 Descending Indianapolis Center
Mon 09:38:12 PM 37.0456 -80.8367 312° West 152 175 8,000 -49 Level Indianapolis Center
Mon 09:39:13 PM 37.0722 -80.8769 310° West 153 176 7,900  Descending Indianapolis Center
Mon 09:40:14 PM 37.1081 -80.9078 326° Northwest 160 184 8,000  Climbing Indianapolis Center
Mon 09:41:16 PM 37.1489 -80.9461 323° Northwest 158 182 7,900 -195 Descending Indianapolis Center
Mon 09:42:17 PM 37.1878 -80.9714 333° Northwest 160 184 7,600 -393 Descending Indianapolis Center
Mon 09:43:18 PM 37.2292 -81.0017 330° Northwest 172 198 7,100 -443 Descending Indianapolis Center
Mon 09:44:19 PM 37.2808 -80.9975 North 189 217 6,700 -295 Descending Indianapolis Center
Mon 09:45:20 PM 37.3394 -80.9883 North 179 206 6,500 -98 Descending Indianapolis Center
Mon 09:46:22 PM 37.3853 -80.9919 356° North 170 196 6,500 -195 Level Indianapolis Center
Mon 09:47:23 PM 37.4083 -81.0381 302° West 161 185 6,100 -541 Descending Indianapolis Center
Mon 09:48:24 PM 37.4025 -81.0908 262° West 160 184 5,400 -738 Descending Indianapolis Center
Mon 09:49:25 PM 37.3683 -81.1250 218° Southwest 158 182 4,600 -639 Descending Indianapolis Center
Mon 09:50:26 PM 37.3372 -81.1572 219° Southwest 143 165 4,100 -492 Descending Indianapolis Center

Login

Don't have an account? Register now (free) for customized features, flight alerts, and more!